sensor_id;sensor_type;location;lat;lon;timestamp;pressure;altitude;pressure_sealevel;temperature;humidity
67377;BME280;54261;46.086;6.588;2023-02-20T00:03:25;93557.41;;;7.80;41.06
67377;BME280;54261;46.086;6.588;2023-02-20T00:08:27;93554.28;;;8.23;40.86
67377;BME280;54261;46.086;6.588;2023-02-20T00:13:29;93559.47;;;6.86;42.07
67377;BME280;54261;46.086;6.588;2023-02-20T00:18:30;93550.81;;;8.22;40.63
67377;BME280;54261;46.086;6.588;2023-02-20T00:23:33;93551.13;;;8.16;39.06
67377;BME280;54261;46.086;6.588;2023-02-20T00:28:37;93560.59;;;7.92;40.21
67377;BME280;54261;46.086;6.588;2023-02-20T00:33:38;93551.44;;;5.60;43.28
67377;BME280;54261;46.086;6.588;2023-02-20T00:38:44;93552.47;;;7.27;41.79
67377;BME280;54261;46.086;6.588;2023-02-20T00:43:45;93555.78;;;7.84;41.04
67377;BME280;54261;46.086;6.588;2023-02-20T00:48:47;93501.25;;;7.14;40.76
67377;BME280;54261;46.086;6.588;2023-02-20T00:54:09;93543.16;;;7.14;41.24
67377;BME280;54261;46.086;6.588;2023-02-20T00:59:11;93537.91;;;7.74;39.77
67377;BME280;54261;46.086;6.588;2023-02-20T01:04:14;93535.53;;;7.68;40.05
67377;BME280;54261;46.086;6.588;2023-02-20T01:09:16;93532.78;;;7.93;39.32
67377;BME280;54261;46.086;6.588;2023-02-20T01:14:18;93523.44;;;7.80;38.94
67377;BME280;54261;46.086;6.588;2023-02-20T01:19:21;93525.22;;;7.30;39.03
67377;BME280;54261;46.086;6.588;2023-02-20T01:24:23;93519.94;;;7.14;39.60
67377;BME280;54261;46.086;6.588;2023-02-20T01:29:25;93510.34;;;6.30;41.25
67377;BME280;54261;46.086;6.588;2023-02-20T01:34:27;93498.88;;;6.97;40.55
67377;BME280;54261;46.086;6.588;2023-02-20T01:39:30;93515.19;;;6.80;41.59
67377;BME280;54261;46.086;6.588;2023-02-20T01:44:34;93519.41;;;7.07;41.04
67377;BME280;54261;46.086;6.588;2023-02-20T01:49:46;93531.16;;;6.44;42.02
67377;BME280;54261;46.086;6.588;2023-02-20T01:54:54;93516.50;;;6.88;41.88
67377;BME280;54261;46.086;6.588;2023-02-20T02:00:19;93538.31;;;6.17;41.82
67377;BME280;54261;46.086;6.588;2023-02-20T02:05:22;93522.09;;;6.60;42.31
67377;BME280;54261;46.086;6.588;2023-02-20T02:11:01;93543.69;;;6.48;44.06
67377;BME280;54261;46.086;6.588;2023-02-20T02:32:16;93533.53;;;6.35;42.46
67377;BME280;54261;46.086;6.588;2023-02-20T02:48:42;93530.38;;;6.59;44.08
67377;BME280;54261;46.086;6.588;2023-02-20T02:54:04;93517.28;;;6.99;42.92
67377;BME280;54261;46.086;6.588;2023-02-20T02:59:08;93499.91;;;7.17;41.81
67377;BME280;54261;46.086;6.588;2023-02-20T03:04:12;93501.00;;;6.28;42.01
67377;BME280;54261;46.086;6.588;2023-02-20T03:09:19;93489.47;;;5.86;43.51
67377;BME280;54261;46.086;6.588;2023-02-20T03:14:32;93469.03;;;6.43;41.76
67377;BME280;54261;46.086;6.588;2023-02-20T03:19:57;93487.19;;;6.72;40.75
67377;BME280;54261;46.086;6.588;2023-02-20T03:25:05;93479.66;;;6.07;41.00
67377;BME280;54261;46.086;6.588;2023-02-20T03:35:24;93476.97;;;5.96;41.81
67377;BME280;54261;46.086;6.588;2023-02-20T03:40:46;93423.97;;;6.10;41.22
67377;BME280;54261;46.086;6.588;2023-02-20T03:46:16;93434.91;;;6.30;41.56
67377;BME280;54261;46.086;6.588;2023-02-20T03:51:22;93443.16;;;6.28;41.99
67377;BME280;54261;46.086;6.588;2023-02-20T03:56:40;93466.88;;;6.50;41.31
67377;BME280;54261;46.086;6.588;2023-02-20T04:01:49;93446.06;;;6.52;41.69
67377;BME280;54261;46.086;6.588;2023-02-20T04:06:53;93462.88;;;6.22;41.71
67377;BME280;54261;46.086;6.588;2023-02-20T04:12:21;93461.56;;;6.30;41.18
67377;BME280;54261;46.086;6.588;2023-02-20T04:17:31;93456.97;;;4.61;46.34
67377;BME280;54261;46.086;6.588;2023-02-20T04:22:38;93467.03;;;5.02;44.99
67377;BME280;54261;46.086;6.588;2023-02-20T04:27:43;93474.97;;;4.49;46.36
67377;BME280;54261;46.086;6.588;2023-02-20T04:32:45;93478.03;;;4.68;46.77
67377;BME280;54261;46.086;6.588;2023-02-20T04:37:47;93483.28;;;5.59;45.44
67377;BME280;54261;46.086;6.588;2023-02-20T04:42:49;93494.16;;;5.47;45.25
67377;BME280;54261;46.086;6.588;2023-02-20T04:47:51;93476.97;;;5.91;43.96
67377;BME280;54261;46.086;6.588;2023-02-20T04:52:54;93494.59;;;6.08;43.65
67377;BME280;54261;46.086;6.588;2023-02-20T04:57:57;93503.59;;;5.81;43.49
67377;BME280;54261;46.086;6.588;2023-02-20T05:03:02;93506.94;;;5.45;42.93
67377;BME280;54261;46.086;6.588;2023-02-20T05:08:06;93509.22;;;6.00;43.04
67377;BME280;54261;46.086;6.588;2023-02-20T05:13:08;93503.13;;;6.20;42.08
67377;BME280;54261;46.086;6.588;2023-02-20T05:18:10;93499.13;;;4.47;42.73
67377;BME280;54261;46.086;6.588;2023-02-20T05:23:12;93491.69;;;5.40;42.34
67377;BME280;54261;46.086;6.588;2023-02-20T05:28:14;93494.72;;;5.54;41.38
67377;BME280;54261;46.086;6.588;2023-02-20T05:33:16;93484.03;;;5.49;41.33
67377;BME280;54261;46.086;6.588;2023-02-20T05:38:18;93462.09;;;4.78;42.16
67377;BME280;54261;46.086;6.588;2023-02-20T05:43:20;93458.81;;;5.04;42.23
67377;BME280;54261;46.086;6.588;2023-02-20T05:48:22;93498.75;;;5.67;41.80
67377;BME280;54261;46.086;6.588;2023-02-20T05:53:27;93489.41;;;5.60;41.95
67377;BME280;54261;46.086;6.588;2023-02-20T05:58:29;93467.63;;;5.89;41.26
67377;BME280;54261;46.086;6.588;2023-02-20T06:03:31;93480.06;;;5.52;41.33
67377;BME280;54261;46.086;6.588;2023-02-20T06:08:32;93475.53;;;4.94;43.25
67377;BME280;54261;46.086;6.588;2023-02-20T06:13:35;93473.44;;;5.06;42.12
67377;BME280;54261;46.086;6.588;2023-02-20T06:18:38;93465.28;;;5.23;43.17
67377;BME280;54261;46.086;6.588;2023-02-20T06:23:42;93456.09;;;4.93;43.24
67377;BME280;54261;46.086;6.588;2023-02-20T06:28:46;93404.78;;;5.03;42.03
67377;BME280;54261;46.086;6.588;2023-02-20T06:33:51;93448.13;;;5.52;41.53
67377;BME280;54261;46.086;6.588;2023-02-20T06:38:53;93443.06;;;4.97;42.21
67377;BME280;54261;46.086;6.588;2023-02-20T06:43:58;93458.38;;;4.36;43.70
67377;BME280;54261;46.086;6.588;2023-02-20T06:49:00;93457.22;;;4.60;44.57
67377;BME280;54261;46.086;6.588;2023-02-20T06:54:03;93453.84;;;5.28;44.05
67377;BME280;54261;46.086;6.588;2023-02-20T06:59:05;93458.53;;;5.59;42.21
67377;BME280;54261;46.086;6.588;2023-02-20T07:04:24;93457.16;;;4.92;41.87
67377;BME280;54261;46.086;6.588;2023-02-20T07:09:28;93463.03;;;5.53;41.93
67377;BME280;54261;46.086;6.588;2023-02-20T07:14:30;93456.06;;;5.47;41.98
67377;BME280;54261;46.086;6.588;2023-02-20T07:19:32;93430.97;;;5.32;41.77
67377;BME280;54261;46.086;6.588;2023-02-20T07:24:34;93443.63;;;5.04;42.54
67377;BME280;54261;46.086;6.588;2023-02-20T07:29:37;93460.81;;;5.39;41.63
67377;BME280;54261;46.086;6.588;2023-02-20T07:34:41;93459.34;;;5.64;42.92
67377;BME280;54261;46.086;6.588;2023-02-20T07:39:58;93454.84;;;5.11;43.74
67377;BME280;54261;46.086;6.588;2023-02-20T07:45:00;93443.78;;;5.35;43.71
67377;BME280;54261;46.086;6.588;2023-02-20T07:50:02;93438.84;;;5.75;42.79
67377;BME280;54261;46.086;6.588;2023-02-20T07:55:04;93448.03;;;5.41;43.24
67377;BME280;54261;46.086;6.588;2023-02-20T08:00:06;93443.94;;;5.97;42.61
67377;BME280;54261;46.086;6.588;2023-02-20T08:05:15;93438.41;;;5.30;43.27
67377;BME280;54261;46.086;6.588;2023-02-20T08:10:20;93453.72;;;5.56;43.98
67377;BME280;54261;46.086;6.588;2023-02-20T08:15:22;93455.09;;;5.79;42.27
67377;BME280;54261;46.086;6.588;2023-02-20T08:20:24;93448.66;;;5.54;44.24
67377;BME280;54261;46.086;6.588;2023-02-20T08:25:26;93437.50;;;5.67;43.16
67377;BME280;54261;46.086;6.588;2023-02-20T08:30:28;93443.06;;;5.61;43.49
67377;BME280;54261;46.086;6.588;2023-02-20T08:35:33;93445.22;;;5.79;43.32
67377;BME280;54261;46.086;6.588;2023-02-20T08:40:35;93449.97;;;2.51;51.22
67377;BME280;54261;46.086;6.588;2023-02-20T08:45:37;93434.94;;;4.71;48.53
67377;BME280;54261;46.086;6.588;2023-02-20T08:50:39;93440.22;;;5.93;45.88
67377;BME280;54261;46.086;6.588;2023-02-20T08:55:41;93435.66;;;5.78;45.73
67377;BME280;54261;46.086;6.588;2023-02-20T09:00:43;93426.63;;;6.52;44.38
67377;BME280;54261;46.086;6.588;2023-02-20T09:05:45;93430.34;;;2.69;52.50
67377;BME280;54261;46.086;6.588;2023-02-20T09:10:47;93435.34;;;1.51;55.47
67377;BME280;54261;46.086;6.588;2023-02-20T09:15:49;93425.69;;;3.76;51.56
67377;BME280;54261;46.086;6.588;2023-02-20T09:20:51;93433.63;;;0.86;58.74
67377;BME280;54261;46.086;6.588;2023-02-20T09:25:53;93426.91;;;1.08;57.76
67377;BME280;54261;46.086;6.588;2023-02-20T09:30:56;93429.03;;;0.70;60.13
67377;BME280;54261;46.086;6.588;2023-02-20T09:36:00;93422.91;;;2.88;54.15
67377;BME280;54261;46.086;6.588;2023-02-20T09:41:03;93421.34;;;4.24;51.31
67377;BME280;54261;46.086;6.588;2023-02-20T09:46:12;93402.22;;;5.24;48.08
67377;BME280;54261;46.086;6.588;2023-02-20T09:51:19;93414.22;;;2.53;54.83
67377;BME280;54261;46.086;6.588;2023-02-20T09:56:27;93396.72;;;2.18;56.31
67377;BME280;54261;46.086;6.588;2023-02-20T10:01:32;93400.53;;;1.42;58.70
67377;BME280;54261;46.086;6.588;2023-02-20T10:06:35;93393.09;;;1.56;58.79
67377;BME280;54261;46.086;6.588;2023-02-20T10:12:02;93388.16;;;2.11;56.68
67377;BME280;54261;46.086;6.588;2023-02-20T10:28:25;93398.91;;;2.21;57.46
67377;BME280;54261;46.086;6.588;2023-02-20T10:33:56;93386.88;;;4.35;54.41
67377;BME280;54261;46.086;6.588;2023-02-20T10:39:10;93398.06;;;6.84;48.99
67377;BME280;54261;46.086;6.588;2023-02-20T10:44:21;93396.75;;;7.36;46.35
67377;BME280;54261;46.086;6.588;2023-02-20T10:49:45;93400.94;;;6.87;45.85
67377;BME280;54261;46.086;6.588;2023-02-20T10:55:08;93389.94;;;3.89;50.09
67377;BME280;54261;46.086;6.588;2023-02-20T11:00:18;93394.72;;;3.32;53.23
67377;BME280;54261;46.086;6.588;2023-02-20T11:05:25;93395.78;;;5.15;50.72
67377;BME280;54261;46.086;6.588;2023-02-20T11:10:28;93396.94;;;2.90;53.66
67377;BME280;54261;46.086;6.588;2023-02-20T11:15:32;93383.19;;;5.89;50.68
67377;BME280;54261;46.086;6.588;2023-02-20T11:25:39;93376.25;;;7.32;44.79
67377;BME280;54261;46.086;6.588;2023-02-20T11:30:45;93372.50;;;6.15;45.25
67377;BME280;54261;46.086;6.588;2023-02-20T11:35:56;93370.31;;;6.74;46.03
67377;BME280;54261;46.086;6.588;2023-02-20T11:41:04;93365.28;;;5.53;47.51
67377;BME280;54261;46.086;6.588;2023-02-20T11:46:21;93356.72;;;6.60;45.00
67377;BME280;54261;46.086;6.588;2023-02-20T11:51:44;93351.03;;;8.53;40.34
67377;BME280;54261;46.086;6.588;2023-02-20T11:56:58;93350.13;;;6.01;46.81
67377;BME280;54261;46.086;6.588;2023-02-20T12:07:27;93342.78;;;6.84;44.93
67377;BME280;54261;46.086;6.588;2023-02-20T12:12:31;93333.16;;;7.44;45.25
67377;BME280;54261;46.086;6.588;2023-02-20T12:18:16;93326.38;;;8.56;40.48
67377;BME280;54261;46.086;6.588;2023-02-20T12:23:17;93325.84;;;10.65;38.55
67377;BME280;54261;46.086;6.588;2023-02-20T13:01:05;93263.94;;;4.65;50.78
67377;BME280;54261;46.086;6.588;2023-02-20T13:06:10;93252.88;;;5.10;50.93
67377;BME280;54261;46.086;6.588;2023-02-20T13:11:18;93260.66;;;8.49;42.32
67377;BME280;54261;46.086;6.588;2023-02-20T13:16:39;93255.84;;;5.76;47.85
67377;BME280;54261;46.086;6.588;2023-02-20T13:21:42;93252.97;;;9.96;41.81
67377;BME280;54261;46.086;6.588;2023-02-20T13:26:49;93250.16;;;10.21;40.70
67377;BME280;54261;46.086;6.588;2023-02-20T13:31:54;93245.81;;;12.63;35.61
67377;BME280;54261;46.086;6.588;2023-02-20T13:36:57;93243.84;;;5.78;48.27
67377;BME280;54261;46.086;6.588;2023-02-20T13:42:04;93230.22;;;10.41;39.04
67377;BME280;54261;46.086;6.588;2023-02-20T13:47:33;93219.78;;;10.11;40.48
67377;BME280;54261;46.086;6.588;2023-02-20T13:52:40;93218.84;;;9.69;40.21
67377;BME280;54261;46.086;6.588;2023-02-20T14:02:50;93155.88;;;7.40;43.76
67377;BME280;54261;46.086;6.588;2023-02-20T14:07:52;93195.38;;;7.08;45.67
67377;BME280;54261;46.086;6.588;2023-02-20T14:12:58;93177.47;;;6.63;46.41
67377;BME280;54261;46.086;6.588;2023-02-20T14:18:01;93184.56;;;10.69;39.54
67377;BME280;54261;46.086;6.588;2023-02-20T14:23:06;93183.25;;;10.80;39.38
67377;BME280;54261;46.086;6.588;2023-02-20T14:28:13;93179.41;;;12.41;37.32
67377;BME280;54261;46.086;6.588;2023-02-20T14:33:23;93187.66;;;9.59;39.94
67377;BME280;54261;46.086;6.588;2023-02-20T14:43:59;93173.50;;;11.67;37.80
67377;BME280;54261;46.086;6.588;2023-02-20T14:49:21;93178.19;;;9.95;39.85
67377;BME280;54261;46.086;6.588;2023-02-20T14:54:26;93174.56;;;12.20;36.48
67377;BME280;54261;46.086;6.588;2023-02-20T14:59:38;93179.38;;;12.32;34.19
67377;BME280;54261;46.086;6.588;2023-02-20T15:05:14;93178.56;;;9.88;38.80
67377;BME280;54261;46.086;6.588;2023-02-20T15:10:40;93176.25;;;10.14;39.09
67377;BME280;54261;46.086;6.588;2023-02-20T15:15:49;93173.31;;;9.35;39.87
67377;BME280;54261;46.086;6.588;2023-02-20T15:20:52;93165.06;;;9.32;40.83
67377;BME280;54261;46.086;6.588;2023-02-20T15:25:54;93158.50;;;7.74;43.37
67377;BME280;54261;46.086;6.588;2023-02-20T15:36:14;93164.16;;;9.23;40.86
67377;BME280;54261;46.086;6.588;2023-02-20T15:41:18;93155.47;;;7.81;42.80
67377;BME280;54261;46.086;6.588;2023-02-20T15:46:21;93169.16;;;8.28;41.96
67377;BME280;54261;46.086;6.588;2023-02-20T15:51:23;93164.94;;;7.98;41.70
67377;BME280;54261;46.086;6.588;2023-02-20T15:56:30;93172.19;;;8.21;43.63
67377;BME280;54261;46.086;6.588;2023-02-20T16:01:33;93179.03;;;10.37;38.97
67377;BME280;54261;46.086;6.588;2023-02-20T16:06:35;93170.59;;;10.30;38.37
67377;BME280;54261;46.086;6.588;2023-02-20T16:11:44;93167.69;;;8.60;41.02
67377;BME280;54261;46.086;6.588;2023-02-20T16:16:50;93164.06;;;9.75;38.80
67377;BME280;54261;46.086;6.588;2023-02-20T16:21:53;93168.78;;;8.78;40.28
67377;BME280;54261;46.086;6.588;2023-02-20T16:27:01;93164.34;;;9.59;39.56
67377;BME280;54261;46.086;6.588;2023-02-20T16:32:08;93160.56;;;10.08;38.07
67377;BME280;54261;46.086;6.588;2023-02-20T16:37:13;93161.22;;;11.52;36.55
67377;BME280;54261;46.086;6.588;2023-02-20T16:47:29;93151.81;;;13.11;33.01
67377;BME280;54261;46.086;6.588;2023-02-20T16:52:36;93165.38;;;13.94;32.20
67377;BME280;54261;46.086;6.588;2023-02-20T16:57:38;93159.34;;;14.27;30.89
67377;BME280;54261;46.086;6.588;2023-02-20T17:02:41;93153.25;;;14.39;30.63
67377;BME280;54261;46.086;6.588;2023-02-20T17:07:43;93165.16;;;14.47;30.04
67377;BME280;54261;46.086;6.588;2023-02-20T17:12:45;93162.53;;;13.64;30.60
67377;BME280;54261;46.086;6.588;2023-02-20T17:17:47;93169.38;;;12.82;31.89
67377;BME280;54261;46.086;6.588;2023-02-20T17:22:50;93148.41;;;12.61;32.41
67377;BME280;54261;46.086;6.588;2023-02-20T17:28:04;93163.44;;;12.44;32.80
67377;BME280;54261;46.086;6.588;2023-02-20T17:33:07;93162.63;;;12.04;33.70
67377;BME280;54261;46.086;6.588;2023-02-20T17:38:09;93168.56;;;12.14;33.73
67377;BME280;54261;46.086;6.588;2023-02-20T17:43:11;93166.31;;;11.30;34.35
67377;BME280;54261;46.086;6.588;2023-02-20T17:48:12;93163.72;;;10.52;35.46
67377;BME280;54261;46.086;6.588;2023-02-20T17:53:14;93170.25;;;9.42;37.70
67377;BME280;54261;46.086;6.588;2023-02-20T17:58:16;93166.75;;;9.09;38.79
67377;BME280;54261;46.086;6.588;2023-02-20T18:03:18;93181.44;;;10.25;37.59
67377;BME280;54261;46.086;6.588;2023-02-20T18:08:20;93168.19;;;8.82;39.04
67377;BME280;54261;46.086;6.588;2023-02-20T18:13:22;93168.69;;;9.22;38.23
67377;BME280;54261;46.086;6.588;2023-02-20T18:18:24;93167.03;;;7.12;41.77
67377;BME280;54261;46.086;6.588;2023-02-20T18:23:26;93167.09;;;7.36;41.98
67377;BME280;54261;46.086;6.588;2023-02-20T18:28:28;93156.72;;;8.38;40.69
67377;BME280;54261;46.086;6.588;2023-02-20T18:33:29;93169.19;;;7.45;42.08
67377;BME280;54261;46.086;6.588;2023-02-20T18:38:32;93159.34;;;8.18;41.79
67377;BME280;54261;46.086;6.588;2023-02-20T18:43:34;93165.00;;;9.37;39.59
67377;BME280;54261;46.086;6.588;2023-02-20T18:48:36;93159.69;;;9.32;38.38
67377;BME280;54261;46.086;6.588;2023-02-20T18:53:37;93148.66;;;9.67;37.34
67377;BME280;54261;46.086;6.588;2023-02-20T18:58:39;93145.00;;;7.85;39.59
67377;BME280;54261;46.086;6.588;2023-02-20T19:03:41;93159.38;;;7.00;42.06
67377;BME280;54261;46.086;6.588;2023-02-20T19:08:43;93158.88;;;6.48;42.79
67377;BME280;54261;46.086;6.588;2023-02-20T19:13:45;93145.84;;;7.26;42.25
67377;BME280;54261;46.086;6.588;2023-02-20T19:18:47;93140.06;;;7.73;41.47
67377;BME280;54261;46.086;6.588;2023-02-20T19:23:51;93147.78;;;9.05;38.95
67377;BME280;54261;46.086;6.588;2023-02-20T19:28:53;93137.88;;;8.48;38.90
67377;BME280;54261;46.086;6.588;2023-02-20T19:33:55;93129.59;;;7.17;41.12
67377;BME280;54261;46.086;6.588;2023-02-20T19:38:57;93102.00;;;7.32;41.04
67377;BME280;54261;46.086;6.588;2023-02-20T19:43:59;93136.88;;;8.82;39.32
67377;BME280;54261;46.086;6.588;2023-02-20T19:49:01;93139.66;;;9.29;37.98
67377;BME280;54261;46.086;6.588;2023-02-20T19:54:10;93132.16;;;8.93;37.73
67377;BME280;54261;46.086;6.588;2023-02-20T19:59:12;93143.88;;;8.15;37.91
67377;BME280;54261;46.086;6.588;2023-02-20T20:04:13;93144.09;;;9.20;37.24
67377;BME280;54261;46.086;6.588;2023-02-20T20:09:17;93120.97;;;9.10;37.24
67377;BME280;54261;46.086;6.588;2023-02-20T20:14:36;93141.06;;;9.41;36.61
67377;BME280;54261;46.086;6.588;2023-02-20T20:19:37;93125.47;;;9.29;36.64
67377;BME280;54261;46.086;6.588;2023-02-20T20:24:47;93144.66;;;9.36;36.48
67377;BME280;54261;46.086;6.588;2023-02-20T20:29:50;93147.13;;;9.46;36.42
67377;BME280;54261;46.086;6.588;2023-02-20T20:34:52;93137.19;;;9.33;35.98
67377;BME280;54261;46.086;6.588;2023-02-20T20:39:56;93141.19;;;8.59;36.49
67377;BME280;54261;46.086;6.588;2023-02-20T20:45:02;93147.56;;;9.20;36.77
67377;BME280;54261;46.086;6.588;2023-02-20T20:50:05;93123.41;;;8.87;36.71
67377;BME280;54261;46.086;6.588;2023-02-20T20:55:07;93125.72;;;6.09;41.70
67377;BME280;54261;46.086;6.588;2023-02-20T21:05:26;93127.47;;;6.39;42.42
67377;BME280;54261;46.086;6.588;2023-02-20T21:10:29;93127.84;;;7.37;40.01
67377;BME280;54261;46.086;6.588;2023-02-20T21:15:31;93121.91;;;8.18;39.05
67377;BME280;54261;46.086;6.588;2023-02-20T21:20:34;93128.69;;;8.35;38.36
67377;BME280;54261;46.086;6.588;2023-02-20T21:25:36;93106.34;;;8.26;37.88
67377;BME280;54261;46.086;6.588;2023-02-20T21:30:39;93108.00;;;8.60;37.49
67377;BME280;54261;46.086;6.588;2023-02-20T21:35:41;93116.25;;;8.63;37.42
67377;BME280;54261;46.086;6.588;2023-02-20T21:40:42;93128.03;;;8.82;37.02
67377;BME280;54261;46.086;6.588;2023-02-20T21:45:44;93124.00;;;9.03;36.61
67377;BME280;54261;46.086;6.588;2023-02-20T21:50:48;93115.44;;;9.01;36.73
67377;BME280;54261;46.086;6.588;2023-02-20T21:55:51;93114.88;;;8.85;36.25
67377;BME280;54261;46.086;6.588;2023-02-20T22:00:53;93108.72;;;8.65;36.70
67377;BME280;54261;46.086;6.588;2023-02-20T22:05:55;93103.22;;;8.76;37.03
67377;BME280;54261;46.086;6.588;2023-02-20T22:10:59;93100.41;;;8.67;37.20
67377;BME280;54261;46.086;6.588;2023-02-20T22:16:19;93046.16;;;8.28;37.26
67377;BME280;54261;46.086;6.588;2023-02-20T22:21:40;93080.94;;;8.04;37.40
67377;BME280;54261;46.086;6.588;2023-02-20T22:27:00;93081.38;;;8.11;37.97
67377;BME280;54261;46.086;6.588;2023-02-20T22:32:21;93077.22;;;8.43;37.33
67377;BME280;54261;46.086;6.588;2023-02-20T22:37:44;93061.84;;;8.35;37.50
67377;BME280;54261;46.086;6.588;2023-02-20T22:43:05;93059.97;;;6.84;40.62
67377;BME280;54261;46.086;6.588;2023-02-20T22:48:25;93057.25;;;7.19;40.22
67377;BME280;54261;46.086;6.588;2023-02-20T22:53:45;93039.84;;;7.51;39.11
67377;BME280;54261;46.086;6.588;2023-02-20T22:59:06;93038.13;;;8.09;38.15
67377;BME280;54261;46.086;6.588;2023-02-20T23:04:27;93029.44;;;7.49;39.06
67377;BME280;54261;46.086;6.588;2023-02-20T23:09:47;93018.25;;;7.72;38.14
67377;BME280;54261;46.086;6.588;2023-02-20T23:15:08;93033.06;;;7.83;37.33
67377;BME280;54261;46.086;6.588;2023-02-20T23:20:29;93030.63;;;7.14;38.42
67377;BME280;54261;46.086;6.588;2023-02-20T23:25:49;93034.97;;;6.70;38.38
67377;BME280;54261;46.086;6.588;2023-02-20T23:31:09;93035.97;;;7.14;38.83
67377;BME280;54261;46.086;6.588;2023-02-20T23:36:30;93031.53;;;7.28;39.46
67377;BME280;54261;46.086;6.588;2023-02-20T23:41:50;93022.19;;;7.55;38.85
67377;BME280;54261;46.086;6.588;2023-02-20T23:47:10;93036.66;;;6.20;40.33
67377;BME280;54261;46.086;6.588;2023-02-20T23:52:30;93032.56;;;7.32;38.85
67377;BME280;54261;46.086;6.588;2023-02-20T23:57:51;93036.09;;;7.52;38.27
